createdAt,value
2022-08-26T00:02:20.701Z,99.90
2022-08-26T00:04:49.640Z,99.90
2022-08-26T00:07:22.790Z,99.90
2022-08-26T00:09:56.659Z,99.90
2022-08-26T00:12:31.517Z,99.90
2022-08-26T00:15:08.560Z,99.90
2022-08-26T00:17:40.166Z,99.90
2022-08-26T00:20:10.556Z,99.90
2022-08-26T00:22:38.607Z,99.90
2022-08-26T00:25:07.554Z,99.90
2022-08-26T00:27:36.695Z,99.90
2022-08-26T00:30:22.836Z,99.90
2022-08-26T00:32:54.282Z,99.90
2022-08-26T00:35:27.978Z,99.90
2022-08-26T00:37:57.537Z,99.90
2022-08-26T00:40:38.728Z,99.90
2022-08-26T00:43:09.570Z,99.90
2022-08-26T00:45:47.092Z,99.90
2022-08-26T00:48:19.308Z,99.90
2022-08-26T00:50:52.847Z,99.90
2022-08-26T00:53:23.992Z,99.90
2022-08-26T00:56:23.089Z,99.90
2022-08-26T00:58:52.474Z,99.90
2022-08-26T01:01:23.096Z,99.90
2022-08-26T01:03:51.189Z,99.90
2022-08-26T01:06:21.140Z,99.90
2022-08-26T01:08:52.348Z,99.90
2022-08-26T01:11:20.946Z,99.90
2022-08-26T01:13:53.680Z,99.90
2022-08-26T01:16:21.753Z,99.90
2022-08-26T01:18:49.596Z,99.90
2022-08-26T01:21:43.607Z,99.90
2022-08-26T01:24:13.945Z,99.90
2022-08-26T01:26:43.335Z,99.90
2022-08-26T01:29:16.010Z,99.90
2022-08-26T01:31:49.373Z,99.90
2022-08-26T01:34:25.291Z,99.90
2022-08-26T01:37:21.699Z,99.90
2022-08-26T01:39:54.960Z,99.90
2022-08-26T01:42:25.523Z,99.90
2022-08-26T01:44:58.034Z,99.90
2022-08-26T01:47:30.202Z,99.90
2022-08-26T01:50:08.899Z,99.90
2022-08-26T01:52:43.232Z,99.90
2022-08-26T01:55:14.771Z,99.90
2022-08-26T01:58:01.387Z,99.90
2022-08-26T02:00:31.595Z,99.90
2022-08-26T02:03:18.398Z,99.90
2022-08-26T02:05:54.170Z,99.90
2022-08-26T02:08:52.192Z,99.90
2022-08-26T02:11:21.246Z,99.90
2022-08-26T02:14:02.479Z,99.90
2022-08-26T02:16:44.541Z,99.90
2022-08-26T02:19:20.021Z,99.90
2022-08-26T02:21:52.705Z,99.90
2022-08-26T02:24:27.942Z,99.90
2022-08-26T02:26:58.227Z,99.90
2022-08-26T02:29:34.623Z,99.90
2022-08-26T02:32:02.779Z,99.90
2022-08-26T02:34:35.965Z,99.90
2022-08-26T02:37:08.677Z,99.90
2022-08-26T02:39:40.230Z,99.90
2022-08-26T02:42:08.257Z,99.90
2022-08-26T02:44:36.894Z,99.90
2022-08-26T02:47:05.298Z,99.90
2022-08-26T02:49:33.086Z,99.90
2022-08-26T02:52:01.818Z,99.90
2022-08-26T02:54:33.069Z,99.90
2022-08-26T02:57:01.642Z,99.90
2022-08-26T02:59:31.411Z,99.90
2022-08-26T03:02:00.474Z,99.90
2022-08-26T03:04:28.286Z,99.90
2022-08-26T03:06:56.238Z,99.90
2022-08-26T03:09:26.690Z,99.90
2022-08-26T03:11:56.002Z,99.90
2022-08-26T03:14:24.484Z,99.90
2022-08-26T03:16:54.213Z,99.90
2022-08-26T03:19:26.310Z,99.90
2022-08-26T03:21:57.846Z,99.90
2022-08-26T03:24:29.393Z,99.90
2022-08-26T03:26:57.674Z,99.90
2022-08-26T03:29:43.616Z,99.90
2022-08-26T03:32:11.938Z,99.90
2022-08-26T03:34:39.707Z,99.90
2022-08-26T03:37:07.812Z,99.90
2022-08-26T03:39:36.179Z,99.90
2022-08-26T03:42:08.406Z,99.90
2022-08-26T03:44:41.982Z,99.90
2022-08-26T03:47:10.305Z,99.90
2022-08-26T03:49:38.263Z,99.90
2022-08-26T03:52:06.917Z,99.90
2022-08-26T03:54:36.143Z,99.90
2022-08-26T03:57:04.165Z,99.90
2022-08-26T03:59:32.865Z,99.90
2022-08-26T04:02:01.022Z,99.90
2022-08-26T04:04:29.174Z,99.90
2022-08-26T04:06:58.883Z,99.90
2022-08-26T04:09:27.851Z,99.90
2022-08-26T04:11:58.713Z,99.90
2022-08-26T04:14:30.575Z,99.90
2022-08-26T04:17:00.454Z,99.90
2022-08-26T04:19:28.143Z,99.90
2022-08-26T04:21:55.862Z,99.90
2022-08-26T04:24:27.197Z,99.90
2022-08-26T04:26:56.650Z,99.90
2022-08-26T04:29:26.894Z,99.90
2022-08-26T04:31:56.016Z,99.90
2022-08-26T04:34:27.276Z,99.90
2022-08-26T04:36:57.930Z,99.90
2022-08-26T04:39:27.755Z,99.90
2022-08-26T04:41:57.964Z,99.90
2022-08-26T04:44:28.981Z,99.90
2022-08-26T04:46:58.505Z,99.90
2022-08-26T04:49:27.514Z,99.90
2022-08-26T04:51:58.256Z,99.90
2022-08-26T04:54:30.683Z,99.90
2022-08-26T04:57:00.325Z,99.90
2022-08-26T04:59:30.369Z,99.90
2022-08-26T05:02:00.161Z,99.90
2022-08-26T05:04:28.062Z,99.90
2022-08-26T05:07:02.890Z,99.90
2022-08-26T05:09:30.846Z,99.90
2022-08-26T05:11:58.681Z,99.90
2022-08-26T05:14:26.794Z,99.90
2022-08-26T05:16:57.383Z,99.90
2022-08-26T05:19:25.309Z,99.90
2022-08-26T05:21:55.692Z,99.90
2022-08-26T05:24:23.635Z,99.90
2022-08-26T05:26:51.406Z,99.90
2022-08-26T05:29:21.788Z,99.90
2022-08-26T05:31:51.997Z,99.90
2022-08-26T05:34:20.985Z,99.90
2022-08-26T05:36:48.940Z,99.90
2022-08-26T05:39:16.943Z,99.90
2022-08-26T05:41:45.218Z,99.90
2022-08-26T05:44:19.006Z,99.90
2022-08-26T05:46:47.217Z,99.90
2022-08-26T05:49:16.087Z,99.90
2022-08-26T05:51:47.519Z,99.90
2022-08-26T05:54:21.845Z,99.90
2022-08-26T05:56:53.581Z,99.90
2022-08-26T05:59:24.588Z,99.90
2022-08-26T06:01:57.648Z,99.90
2022-08-26T06:04:27.018Z,99.90
2022-08-26T06:06:58.117Z,99.90
2022-08-26T06:09:26.991Z,99.90
2022-08-26T06:11:56.054Z,99.90
2022-08-26T06:14:23.761Z,99.90
2022-08-26T06:16:51.595Z,99.90
2022-08-26T06:19:21.149Z,99.90
2022-08-26T06:21:54.189Z,99.90
2022-08-26T06:24:41.245Z,99.90
2022-08-26T06:27:13.663Z,99.90
2022-08-26T06:29:41.980Z,99.90
2022-08-26T06:32:09.769Z,99.90
2022-08-26T06:34:37.646Z,99.90
2022-08-26T06:37:06.647Z,99.90
2022-08-26T06:39:35.029Z,99.90
2022-08-26T06:42:06.129Z,99.90
2022-08-26T06:44:35.109Z,99.90
2022-08-26T06:47:03.498Z,99.90
2022-08-26T06:49:32.270Z,99.90
2022-08-26T06:52:00.123Z,99.90
2022-08-26T06:54:32.910Z,99.90
2022-08-26T06:57:01.248Z,99.90
2022-08-26T06:59:31.329Z,99.90
2022-08-26T07:01:59.116Z,99.90
2022-08-26T07:04:36.068Z,99.90
2022-08-26T07:07:03.875Z,99.90
2022-08-26T07:09:33.250Z,99.90
2022-08-26T07:12:02.379Z,99.90
2022-08-26T07:14:31.793Z,99.90
2022-08-26T07:17:01.767Z,99.90
2022-08-26T07:19:30.831Z,99.90
2022-08-26T07:22:05.018Z,99.90
2022-08-26T07:24:35.925Z,99.90
2022-08-26T07:27:07.310Z,99.90
2022-08-26T07:29:40.036Z,99.90
2022-08-26T07:32:09.873Z,99.90
2022-08-26T07:34:39.393Z,99.90
2022-08-26T07:37:09.875Z,99.90
2022-08-26T07:39:38.111Z,99.90
2022-08-26T07:42:09.610Z,99.90
2022-08-26T07:44:38.316Z,99.90
2022-08-26T07:47:10.399Z,99.90
2022-08-26T07:49:55.213Z,99.90
2022-08-26T07:52:27.242Z,99.90
2022-08-26T07:54:59.843Z,99.90
2022-08-26T07:57:28.791Z,99.90
2022-08-26T07:59:57.724Z,99.90
2022-08-26T08:02:28.272Z,99.90
2022-08-26T08:04:57.893Z,99.90
2022-08-26T08:07:44.541Z,99.90
2022-08-26T08:10:28.675Z,99.90
2022-08-26T08:13:03.322Z,99.40
2022-08-26T08:15:33.230Z,99.50
2022-08-26T08:18:06.550Z,99.30
2022-08-26T08:20:59.482Z,98.80
2022-08-26T08:23:33.523Z,95.20
2022-08-26T08:26:09.313Z,98.10
2022-08-26T08:28:38.542Z,96.80
2022-08-26T08:31:07.007Z,96.70
2022-08-26T08:33:35.336Z,95.00
2022-08-26T08:36:09.247Z,95.20
2022-08-26T08:38:49.974Z,94.50
2022-08-26T08:41:32.083Z,94.40
2022-08-26T08:44:02.212Z,91.00
2022-08-26T08:46:30.555Z,93.00
2022-08-26T08:49:00.499Z,90.90
2022-08-26T08:51:50.232Z,93.30
2022-08-26T08:54:22.391Z,90.00
2022-08-26T08:57:03.916Z,87.00
2022-08-26T08:59:35.357Z,90.30
2022-08-26T09:02:30.714Z,91.20
2022-08-26T09:05:25.733Z,86.40
2022-08-26T09:08:04.530Z,90.10
2022-08-26T09:10:51.513Z,89.60
2022-08-26T09:13:33.919Z,88.20
2022-08-26T09:16:20.533Z,88.20
2022-08-26T09:19:06.638Z,86.50
2022-08-26T09:21:34.976Z,83.50
2022-08-26T09:24:07.824Z,87.10
2022-08-26T09:26:39.144Z,83.80
2022-08-26T09:29:27.195Z,84.30
2022-08-26T09:32:19.579Z,74.40
2022-08-26T09:35:06.326Z,73.60
2022-08-26T09:40:36.519Z,77.40
2022-08-26T09:43:26.204Z,74.60
2022-08-26T09:46:21.575Z,76.40
2022-08-26T09:52:21.475Z,76.70
2022-08-26T09:55:17.637Z,70.90
2022-08-26T09:58:02.240Z,68.90
2022-08-26T10:01:51.848Z,73.20
2022-08-26T10:04:32.956Z,70.10
2022-08-26T10:07:11.262Z,69.10
2022-08-26T10:09:43.170Z,71.00
2022-08-26T10:12:17.824Z,70.10
2022-08-26T10:14:54.355Z,67.70
2022-08-26T10:17:42.171Z,67.30
2022-08-26T10:20:24.076Z,63.40
2022-08-26T10:23:19.863Z,66.20
2022-08-26T10:26:05.738Z,61.90
2022-08-26T10:29:15.234Z,63.60
2022-08-26T10:32:03.415Z,63.60
2022-08-26T10:34:34.557Z,65.50
2022-08-26T10:37:15.513Z,64.70
2022-08-26T10:40:03.424Z,63.30
2022-08-26T10:42:37.435Z,62.40
2022-08-26T10:45:15.042Z,62.50
2022-08-26T10:48:11.094Z,64.10
2022-08-26T10:50:47.521Z,61.60
2022-08-26T10:53:47.463Z,63.30
2022-08-26T10:56:49.017Z,59.10
2022-08-26T10:59:47.836Z,59.70
2022-08-26T11:02:40.972Z,58.60
2022-08-26T11:05:55.788Z,58.90
2022-08-26T11:08:29.899Z,57.50
2022-08-26T11:11:04.016Z,58.40
2022-08-26T11:13:56.941Z,58.30
2022-08-26T11:16:53.362Z,54.60
2022-08-26T11:19:45.622Z,52.60
2022-08-26T11:22:25.921Z,54.60
2022-08-26T11:24:53.612Z,55.20
2022-08-26T11:27:52.290Z,57.10
2022-08-26T11:30:21.564Z,55.30
2022-08-26T11:32:57.959Z,56.70
2022-08-26T11:35:34.901Z,54.90
2022-08-26T11:38:36.534Z,55.10
2022-08-26T11:41:17.310Z,54.70
2022-08-26T11:43:48.856Z,54.70
2022-08-26T11:46:26.102Z,56.00
2022-08-26T11:49:03.676Z,54.60
2022-08-26T11:51:33.483Z,54.90
2022-08-26T11:54:35.591Z,56.40
2022-08-26T11:57:12.143Z,53.50
2022-08-26T11:59:46.374Z,55.60
2022-08-26T12:05:31.015Z,54.50
2022-08-26T12:08:08.937Z,53.80
2022-08-26T12:10:43.516Z,52.70
2022-08-26T12:13:26.462Z,52.10
2022-08-26T12:15:57.578Z,51.30
2022-08-26T12:18:40.018Z,53.30
2022-08-26T12:21:26.631Z,52.20
2022-08-26T12:23:59.733Z,50.20
2022-08-26T12:26:33.435Z,51.70
2022-08-26T12:29:19.994Z,51.40
2022-08-26T12:31:48.560Z,52.10
2022-08-26T12:34:18.594Z,52.30
2022-08-26T12:37:14.856Z,52.20
2022-08-26T12:39:44.916Z,52.50
2022-08-26T12:42:12.681Z,52.30
2022-08-26T12:44:53.191Z,51.70
2022-08-26T12:47:42.987Z,51.10
2022-08-26T12:50:18.118Z,50.50
2022-08-26T12:53:28.675Z,50.40
2022-08-26T12:56:17.449Z,49.80
2022-08-26T12:59:23.123Z,51.30
2022-08-26T13:01:54.118Z,48.30
2022-08-26T13:04:33.855Z,50.00
2022-08-26T13:07:20.963Z,49.60
2022-08-26T13:09:50.719Z,50.30
2022-08-26T13:12:33.966Z,51.20
2022-08-26T13:15:02.428Z,50.30
2022-08-26T13:17:31.625Z,51.50
2022-08-26T13:20:03.890Z,51.00
2022-08-26T13:22:35.101Z,50.80
2022-08-26T13:25:08.062Z,50.40
2022-08-26T13:27:36.439Z,50.80
2022-08-26T13:30:17.482Z,50.50
2022-08-26T13:33:03.139Z,50.40
2022-08-26T13:35:35.726Z,50.20
2022-08-26T13:38:30.888Z,50.20
2022-08-26T13:41:03.607Z,50.10
2022-08-26T13:43:32.555Z,50.50
2022-08-26T13:46:01.637Z,49.80
2022-08-26T13:48:30.010Z,49.90
2022-08-26T13:50:58.189Z,49.90
2022-08-26T13:53:28.889Z,50.10
2022-08-26T13:55:58.094Z,50.50
2022-08-26T13:58:28.547Z,51.10
2022-08-26T14:00:58.092Z,50.90
2022-08-26T14:03:28.612Z,50.80
2022-08-26T14:05:59.933Z,50.70
2022-08-26T14:08:28.069Z,50.20
2022-08-26T14:10:55.733Z,50.10
2022-08-26T14:13:27.223Z,50.20
2022-08-26T14:15:54.987Z,49.10
2022-08-26T14:18:31.012Z,49.00
2022-08-26T14:21:01.218Z,48.30
2022-08-26T14:23:32.131Z,48.70
2022-08-26T14:26:29.173Z,48.90
2022-08-26T14:32:02.904Z,48.70
2022-08-26T14:34:33.822Z,49.10
2022-08-26T14:37:07.707Z,49.20
2022-08-26T14:39:37.148Z,49.20
2022-08-26T14:42:06.662Z,49.40
2022-08-26T14:44:34.656Z,49.20
2022-08-26T14:47:38.095Z,49.60
2022-08-26T14:50:10.489Z,49.60
2022-08-26T14:53:00.239Z,50.10
2022-08-26T14:55:29.537Z,49.70
2022-08-26T14:57:57.681Z,49.60
2022-08-26T15:00:25.827Z,49.60
2022-08-26T15:02:58.739Z,49.30
2022-08-26T15:05:30.330Z,49.10
2022-08-26T15:07:58.120Z,48.90
2022-08-26T15:10:29.266Z,48.40
2022-08-26T15:12:57.081Z,48.50
2022-08-26T15:15:25.108Z,48.40
2022-08-26T15:17:57.692Z,48.20
2022-08-26T15:20:35.900Z,48.10
2022-08-26T15:23:06.417Z,48.10
2022-08-26T15:25:34.229Z,48.80
2022-08-26T15:28:02.211Z,47.70
2022-08-26T15:30:31.935Z,47.90
2022-08-26T15:35:43.751Z,47.10
2022-08-26T15:38:15.765Z,47.70
2022-08-26T15:40:46.489Z,47.90
2022-08-26T15:43:27.772Z,47.80
2022-08-26T15:46:03.441Z,47.20
2022-08-26T15:48:31.302Z,48.20
2022-08-26T15:51:01.632Z,48.70
2022-08-26T15:53:33.775Z,49.20
2022-08-26T15:56:05.080Z,49.50
2022-08-26T15:58:34.150Z,49.80
2022-08-26T16:01:07.560Z,50.00
2022-08-26T16:03:38.312Z,50.50
2022-08-26T16:06:07.063Z,50.50
2022-08-26T16:08:36.755Z,50.60
2022-08-26T16:11:04.839Z,50.80
2022-08-26T16:13:39.881Z,51.30
2022-08-26T16:16:08.547Z,51.80
2022-08-26T16:18:37.783Z,52.10
2022-08-26T16:21:13.700Z,52.30
2022-08-26T16:23:45.004Z,52.40
2022-08-26T16:26:16.996Z,52.70
2022-08-26T16:28:45.333Z,53.00
2022-08-26T16:31:15.650Z,52.80
2022-08-26T16:33:43.966Z,52.90
2022-08-26T16:36:12.072Z,53.10
2022-08-26T16:38:40.246Z,53.00
2022-08-26T16:41:09.009Z,53.00
2022-08-26T16:43:36.916Z,53.30
2022-08-26T16:46:07.413Z,53.80
2022-08-26T16:48:35.405Z,54.80
2022-08-26T16:51:03.515Z,54.50
2022-08-26T16:53:31.619Z,54.40
2022-08-26T16:56:03.380Z,54.60
2022-08-26T16:58:31.418Z,54.70
2022-08-26T17:00:59.145Z,54.80
2022-08-26T17:03:27.735Z,54.90
2022-08-26T17:05:55.445Z,55.20
2022-08-26T17:08:28.401Z,55.60
2022-08-26T17:11:01.839Z,55.80
2022-08-26T17:13:35.170Z,56.00
2022-08-26T17:16:06.476Z,56.20
2022-08-26T17:18:35.549Z,56.70
2022-08-26T17:21:06.776Z,57.00
2022-08-26T17:23:35.404Z,57.30
2022-08-26T17:26:06.083Z,57.40
2022-08-26T17:28:34.153Z,57.50
2022-08-26T17:31:02.123Z,57.70
2022-08-26T17:33:32.918Z,57.70
2022-08-26T17:36:01.544Z,57.90
2022-08-26T17:38:29.306Z,57.90
2022-08-26T17:40:59.112Z,57.70
2022-08-26T17:43:27.305Z,57.90
2022-08-26T17:46:06.788Z,58.20
2022-08-26T17:48:36.710Z,58.60
2022-08-26T17:51:12.204Z,58.80
2022-08-26T17:53:41.252Z,58.80
2022-08-26T17:56:14.838Z,58.70
2022-08-26T17:58:51.025Z,59.10
2022-08-26T18:01:21.629Z,59.30
2022-08-26T18:03:51.224Z,59.50
2022-08-26T18:06:24.480Z,59.80
2022-08-26T18:08:52.211Z,59.80
2022-08-26T18:11:23.099Z,60.00
2022-08-26T18:13:53.065Z,60.30
2022-08-26T18:16:21.092Z,60.50
2022-08-26T18:18:53.512Z,60.60
2022-08-26T18:21:24.570Z,60.90
2022-08-26T18:23:53.704Z,61.30
2022-08-26T18:26:34.401Z,61.60
2022-08-26T18:29:03.791Z,62.00
2022-08-26T18:31:32.112Z,62.60
2022-08-26T18:34:01.982Z,62.90
2022-08-26T18:36:33.533Z,62.50
2022-08-26T18:39:05.978Z,62.30
2022-08-26T18:41:45.157Z,62.40
2022-08-26T18:44:15.814Z,62.50
2022-08-26T18:46:45.265Z,62.50
2022-08-26T18:49:15.234Z,62.60
2022-08-26T18:51:44.420Z,62.80
2022-08-26T18:54:15.084Z,62.90
2022-08-26T18:56:46.427Z,63.00
2022-08-26T18:59:14.235Z,63.10
2022-08-26T19:01:42.678Z,63.50
2022-08-26T19:04:15.573Z,63.60
2022-08-26T19:06:45.833Z,63.80
2022-08-26T19:09:17.941Z,64.10
2022-08-26T19:11:46.718Z,64.20
2022-08-26T19:14:18.295Z,64.40
2022-08-26T19:16:48.439Z,64.70
2022-08-26T19:19:16.627Z,65.10
2022-08-26T19:21:44.702Z,65.30
2022-08-26T19:24:17.457Z,65.20
2022-08-26T19:26:48.594Z,65.20
2022-08-26T19:29:21.197Z,65.20
2022-08-26T19:31:50.576Z,65.20
2022-08-26T19:34:22.457Z,65.30
2022-08-26T19:37:03.144Z,65.50
2022-08-26T19:39:32.343Z,65.90
2022-08-26T19:42:00.550Z,66.30
2022-08-26T19:44:46.823Z,66.30
2022-08-26T19:47:15.215Z,66.30
2022-08-26T19:49:46.305Z,66.20
2022-08-26T19:52:15.688Z,66.00
2022-08-26T19:54:44.536Z,66.20
2022-08-26T19:57:12.416Z,66.10
2022-08-26T19:59:41.724Z,66.10
2022-08-26T20:02:14.902Z,66.30
2022-08-26T20:04:45.683Z,66.40
2022-08-26T20:07:18.506Z,66.70
2022-08-26T20:09:48.008Z,66.70
2022-08-26T20:12:17.541Z,66.80
2022-08-26T20:14:45.212Z,67.00
2022-08-26T20:17:13.570Z,67.20
2022-08-26T20:19:59.713Z,67.70
2022-08-26T20:22:28.294Z,68.60
2022-08-26T20:24:58.969Z,69.20
2022-08-26T20:27:30.808Z,70.20
2022-08-26T20:30:09.231Z,71.10
2022-08-26T20:32:38.547Z,71.90
2022-08-26T20:35:10.360Z,72.80
2022-08-26T20:37:41.542Z,73.60
2022-08-26T20:40:12.599Z,74.20
2022-08-26T20:42:40.622Z,75.10
2022-08-26T20:45:11.117Z,75.70
2022-08-26T20:47:39.816Z,76.40
2022-08-26T20:50:08.693Z,79.10
2022-08-26T20:52:40.117Z,76.90
2022-08-26T20:55:08.442Z,77.60
2022-08-26T20:57:36.325Z,78.30
2022-08-26T21:00:07.240Z,79.00
2022-08-26T21:02:35.192Z,79.70
2022-08-26T21:05:07.106Z,80.00
2022-08-26T21:07:36.384Z,80.60
2022-08-26T21:10:08.844Z,81.40
2022-08-26T21:12:37.671Z,81.90
2022-08-26T21:15:10.439Z,82.40
2022-08-26T21:17:38.713Z,83.10
2022-08-26T21:20:06.985Z,83.50
2022-08-26T21:22:35.675Z,84.20
2022-08-26T21:25:04.113Z,85.10
2022-08-26T21:27:31.946Z,85.70
2022-08-26T21:30:00.662Z,86.50
2022-08-26T21:32:32.579Z,87.10
2022-08-26T21:35:03.503Z,87.80
2022-08-26T21:37:31.751Z,88.40
2022-08-26T21:40:05.246Z,88.90
2022-08-26T21:42:35.067Z,89.40
2022-08-26T21:45:06.945Z,90.30
2022-08-26T21:47:34.890Z,90.40
2022-08-26T21:56:48.980Z,91.30
2022-08-26T21:59:18.903Z,91.70
2022-08-26T22:01:47.148Z,91.90
2022-08-26T22:04:16.141Z,92.20
2022-08-26T22:06:55.332Z,92.40
2022-08-26T22:09:27.454Z,93.00
2022-08-26T22:11:58.008Z,93.00
2022-08-26T22:14:30.868Z,93.30
2022-08-26T22:17:02.765Z,93.50
2022-08-26T22:19:34.000Z,93.70
2022-08-26T22:22:07.727Z,94.00
2022-08-26T22:24:36.084Z,94.10
2022-08-26T22:27:04.290Z,94.30
2022-08-26T22:29:33.414Z,94.60
2022-08-26T22:32:01.951Z,94.80
2022-08-26T22:34:29.655Z,95.00
2022-08-26T22:36:57.647Z,95.30
2022-08-26T22:39:26.332Z,95.50
2022-08-26T22:41:56.883Z,95.70
2022-08-26T22:44:24.525Z,96.00
2022-08-26T22:46:57.089Z,97.00
2022-08-26T22:49:26.556Z,96.20
2022-08-26T22:51:54.584Z,96.60
2022-08-26T22:54:22.811Z,97.00
2022-08-26T22:56:50.627Z,97.20
2022-08-26T22:59:18.394Z,97.30
2022-08-26T23:01:47.483Z,97.40
2022-08-26T23:04:15.398Z,97.60
2022-08-26T23:06:47.519Z,97.80
2022-08-26T23:09:18.537Z,97.80
2022-08-26T23:11:47.009Z,98.00
2022-08-26T23:14:23.104Z,98.70
2022-08-26T23:16:51.573Z,97.80
2022-08-26T23:19:22.679Z,97.90
2022-08-26T23:21:51.290Z,98.10
2022-08-26T23:24:22.391Z,98.10
2022-08-26T23:26:55.917Z,98.10
2022-08-26T23:29:37.358Z,98.90
2022-08-26T23:32:05.572Z,98.20
2022-08-26T23:34:55.467Z,98.40
2022-08-26T23:37:27.257Z,98.60
2022-08-26T23:39:58.508Z,99.60
2022-08-26T23:42:27.097Z,98.80
2022-08-26T23:44:57.513Z,99.00
2022-08-26T23:47:25.352Z,99.10
2022-08-26T23:49:55.510Z,99.30
2022-08-26T23:52:41.598Z,99.40
2022-08-26T23:55:11.899Z,99.40
2022-08-26T23:57:39.902Z,99.40
